sensor_id;sensor_type;location;lat;lon;timestamp;P1;durP1;ratioP1;P2;durP2;ratioP2
70592;SDS011;58294;42.988;20.338;2024-01-30T00:01:43;35.80;;;28.80;;
70592;SDS011;58294;42.988;20.338;2024-01-30T00:04:08;40.33;;;29.38;;
70592;SDS011;58294;42.988;20.338;2024-01-30T00:06:34;26.50;;;19.33;;
70592;SDS011;58294;42.988;20.338;2024-01-30T00:09:00;36.05;;;27.35;;
70592;SDS011;58294;42.988;20.338;2024-01-30T00:11:26;34.80;;;24.98;;
70592;SDS011;58294;42.988;20.338;2024-01-30T00:13:53;24.23;;;18.90;;
70592;SDS011;58294;42.988;20.338;2024-01-30T00:16:20;30.38;;;21.80;;
70592;SDS011;58294;42.988;20.338;2024-01-30T00:18:47;27.55;;;22.63;;
70592;SDS011;58294;42.988;20.338;2024-01-30T00:21:13;25.45;;;20.38;;
70592;SDS011;58294;42.988;20.338;2024-01-30T00:23:39;25.50;;;18.60;;
70592;SDS011;58294;42.988;20.338;2024-01-30T00:26:04;21.98;;;16.33;;
70592;SDS011;58294;42.988;20.338;2024-01-30T00:28:31;30.15;;;20.23;;
70592;SDS011;58294;42.988;20.338;2024-01-30T00:30:57;25.50;;;19.50;;
70592;SDS011;58294;42.988;20.338;2024-01-30T00:33:22;23.08;;;17.40;;
70592;SDS011;58294;42.988;20.338;2024-01-30T00:35:48;39.63;;;29.35;;
70592;SDS011;58294;42.988;20.338;2024-01-30T00:38:14;53.30;;;37.63;;
70592;SDS011;58294;42.988;20.338;2024-01-30T00:40:40;56.47;;;38.88;;
70592;SDS011;58294;42.988;20.338;2024-01-30T00:43:05;50.83;;;39.28;;
70592;SDS011;58294;42.988;20.338;2024-01-30T00:45:31;49.47;;;37.65;;
70592;SDS011;58294;42.988;20.338;2024-01-30T00:47:57;46.28;;;34.55;;
70592;SDS011;58294;42.988;20.338;2024-01-30T00:50:23;85.07;;;60.13;;
70592;SDS011;58294;42.988;20.338;2024-01-30T00:52:49;72.65;;;51.97;;
70592;SDS011;58294;42.988;20.338;2024-01-30T00:55:14;64.30;;;41.92;;
70592;SDS011;58294;42.988;20.338;2024-01-30T00:57:40;68.90;;;45.53;;
70592;SDS011;58294;42.988;20.338;2024-01-30T01:00:07;71.63;;;52.50;;
70592;SDS011;58294;42.988;20.338;2024-01-30T01:02:34;71.35;;;52.97;;
70592;SDS011;58294;42.988;20.338;2024-01-30T01:05:00;118.28;;;79.38;;
70592;SDS011;58294;42.988;20.338;2024-01-30T01:07:26;73.20;;;48.70;;
70592;SDS011;58294;42.988;20.338;2024-01-30T01:09:52;67.93;;;47.25;;
70592;SDS011;58294;42.988;20.338;2024-01-30T01:12:18;52.58;;;36.30;;
70592;SDS011;58294;42.988;20.338;2024-01-30T01:14:45;51.33;;;32.80;;
70592;SDS011;58294;42.988;20.338;2024-01-30T01:17:11;45.50;;;31.77;;
70592;SDS011;58294;42.988;20.338;2024-01-30T01:19:37;37.28;;;27.50;;
70592;SDS011;58294;42.988;20.338;2024-01-30T01:22:03;34.30;;;25.85;;
70592;SDS011;58294;42.988;20.338;2024-01-30T01:24:32;40.58;;;28.38;;
70592;SDS011;58294;42.988;20.338;2024-01-30T01:26:58;38.35;;;28.05;;
70592;SDS011;58294;42.988;20.338;2024-01-30T01:29:24;40.25;;;28.88;;
70592;SDS011;58294;42.988;20.338;2024-01-30T01:31:56;57.63;;;39.13;;
70592;SDS011;58294;42.988;20.338;2024-01-30T01:34:23;39.03;;;26.58;;
70592;SDS011;58294;42.988;20.338;2024-01-30T01:36:50;42.08;;;27.85;;
70592;SDS011;58294;42.988;20.338;2024-01-30T01:39:16;35.95;;;27.42;;
70592;SDS011;58294;42.988;20.338;2024-01-30T01:41:42;36.63;;;27.05;;
70592;SDS011;58294;42.988;20.338;2024-01-30T01:44:08;42.80;;;29.52;;
70592;SDS011;58294;42.988;20.338;2024-01-30T01:46:35;51.75;;;37.67;;
70592;SDS011;58294;42.988;20.338;2024-01-30T01:49:02;45.30;;;33.00;;
70592;SDS011;58294;42.988;20.338;2024-01-30T01:51:29;43.53;;;32.63;;
70592;SDS011;58294;42.988;20.338;2024-01-30T01:53:57;45.08;;;31.23;;
70592;SDS011;58294;42.988;20.338;2024-01-30T01:56:23;44.25;;;32.47;;
70592;SDS011;58294;42.988;20.338;2024-01-30T01:58:51;53.25;;;33.90;;
70592;SDS011;58294;42.988;20.338;2024-01-30T02:01:19;63.45;;;42.65;;
70592;SDS011;58294;42.988;20.338;2024-01-30T02:03:46;64.63;;;43.47;;
70592;SDS011;58294;42.988;20.338;2024-01-30T02:06:13;55.38;;;41.05;;
70592;SDS011;58294;42.988;20.338;2024-01-30T02:08:40;41.60;;;29.15;;
70592;SDS011;58294;42.988;20.338;2024-01-30T02:11:06;39.33;;;30.88;;
70592;SDS011;58294;42.988;20.338;2024-01-30T02:13:32;35.42;;;25.08;;
70592;SDS011;58294;42.988;20.338;2024-01-30T02:15:58;29.33;;;21.40;;
70592;SDS011;58294;42.988;20.338;2024-01-30T02:18:24;27.55;;;21.73;;
70592;SDS011;58294;42.988;20.338;2024-01-30T02:20:50;33.40;;;23.25;;
70592;SDS011;58294;42.988;20.338;2024-01-30T02:23:19;31.52;;;23.50;;
70592;SDS011;58294;42.988;20.338;2024-01-30T02:25:45;31.48;;;24.27;;
70592;SDS011;58294;42.988;20.338;2024-01-30T02:28:12;34.55;;;27.98;;
70592;SDS011;58294;42.988;20.338;2024-01-30T02:30:43;36.80;;;28.00;;
70592;SDS011;58294;42.988;20.338;2024-01-30T02:33:09;43.65;;;30.10;;
70592;SDS011;58294;42.988;20.338;2024-01-30T02:35:35;32.10;;;25.65;;
70592;SDS011;58294;42.988;20.338;2024-01-30T02:38:01;39.72;;;27.17;;
70592;SDS011;58294;42.988;20.338;2024-01-30T02:40:27;33.58;;;25.85;;
70592;SDS011;58294;42.988;20.338;2024-01-30T02:42:53;34.17;;;26.10;;
70592;SDS011;58294;42.988;20.338;2024-01-30T02:45:18;32.33;;;24.27;;
70592;SDS011;58294;42.988;20.338;2024-01-30T02:47:45;33.40;;;24.40;;
70592;SDS011;58294;42.988;20.338;2024-01-30T02:50:11;29.88;;;23.45;;
70592;SDS011;58294;42.988;20.338;2024-01-30T02:52:37;33.22;;;23.75;;
70592;SDS011;58294;42.988;20.338;2024-01-30T02:55:03;35.50;;;23.88;;
70592;SDS011;58294;42.988;20.338;2024-01-30T02:57:29;39.75;;;26.08;;
70592;SDS011;58294;42.988;20.338;2024-01-30T02:59:55;41.95;;;32.25;;
70592;SDS011;58294;42.988;20.338;2024-01-30T03:02:20;42.08;;;29.30;;
70592;SDS011;58294;42.988;20.338;2024-01-30T03:04:46;32.45;;;24.48;;
70592;SDS011;58294;42.988;20.338;2024-01-30T03:07:12;32.00;;;23.17;;
70592;SDS011;58294;42.988;20.338;2024-01-30T03:09:38;32.05;;;25.40;;
70592;SDS011;58294;42.988;20.338;2024-01-30T03:12:06;31.20;;;23.23;;
70592;SDS011;58294;42.988;20.338;2024-01-30T03:14:32;39.85;;;25.48;;
70592;SDS011;58294;42.988;20.338;2024-01-30T03:16:58;40.15;;;30.77;;
70592;SDS011;58294;42.988;20.338;2024-01-30T03:19:24;42.28;;;32.47;;
70592;SDS011;58294;42.988;20.338;2024-01-30T03:21:50;39.88;;;30.63;;
70592;SDS011;58294;42.988;20.338;2024-01-30T03:24:16;33.75;;;25.35;;
70592;SDS011;58294;42.988;20.338;2024-01-30T03:26:42;32.80;;;25.42;;
70592;SDS011;58294;42.988;20.338;2024-01-30T03:29:08;31.98;;;25.27;;
70592;SDS011;58294;42.988;20.338;2024-01-30T03:31:34;31.33;;;22.17;;
70592;SDS011;58294;42.988;20.338;2024-01-30T03:34:00;24.38;;;20.15;;
70592;SDS011;58294;42.988;20.338;2024-01-30T03:36:26;22.85;;;18.58;;
70592;SDS011;58294;42.988;20.338;2024-01-30T03:38:53;22.08;;;18.52;;
70592;SDS011;58294;42.988;20.338;2024-01-30T03:41:18;21.58;;;16.77;;
70592;SDS011;58294;42.988;20.338;2024-01-30T03:43:44;20.90;;;15.73;;
70592;SDS011;58294;42.988;20.338;2024-01-30T03:46:13;25.63;;;22.00;;
70592;SDS011;58294;42.988;20.338;2024-01-30T03:48:39;26.00;;;21.17;;
70592;SDS011;58294;42.988;20.338;2024-01-30T03:51:05;21.88;;;18.10;;
70592;SDS011;58294;42.988;20.338;2024-01-30T03:53:31;25.10;;;19.27;;
70592;SDS011;58294;42.988;20.338;2024-01-30T03:55:57;31.63;;;25.35;;
70592;SDS011;58294;42.988;20.338;2024-01-30T03:58:22;43.47;;;29.20;;
70592;SDS011;58294;42.988;20.338;2024-01-30T04:00:48;35.63;;;26.65;;
70592;SDS011;58294;42.988;20.338;2024-01-30T04:03:14;37.20;;;28.35;;
70592;SDS011;58294;42.988;20.338;2024-01-30T04:05:40;40.40;;;29.73;;
70592;SDS011;58294;42.988;20.338;2024-01-30T04:08:07;35.35;;;28.52;;
70592;SDS011;58294;42.988;20.338;2024-01-30T04:10:33;46.33;;;34.80;;
70592;SDS011;58294;42.988;20.338;2024-01-30T04:12:59;40.85;;;31.88;;
70592;SDS011;58294;42.988;20.338;2024-01-30T04:15:25;39.20;;;29.27;;
70592;SDS011;58294;42.988;20.338;2024-01-30T04:17:51;34.67;;;27.20;;
70592;SDS011;58294;42.988;20.338;2024-01-30T04:20:17;33.17;;;25.92;;
70592;SDS011;58294;42.988;20.338;2024-01-30T04:22:43;28.40;;;22.38;;
70592;SDS011;58294;42.988;20.338;2024-01-30T04:25:10;24.77;;;19.13;;
70592;SDS011;58294;42.988;20.338;2024-01-30T04:27:37;20.35;;;16.58;;
70592;SDS011;58294;42.988;20.338;2024-01-30T04:30:03;20.45;;;16.80;;
70592;SDS011;58294;42.988;20.338;2024-01-30T04:32:29;21.80;;;16.95;;
70592;SDS011;58294;42.988;20.338;2024-01-30T04:34:55;18.90;;;14.35;;
70592;SDS011;58294;42.988;20.338;2024-01-30T04:37:20;17.58;;;14.55;;
70592;SDS011;58294;42.988;20.338;2024-01-30T04:39:46;19.60;;;14.73;;
70592;SDS011;58294;42.988;20.338;2024-01-30T04:42:12;20.95;;;13.82;;
70592;SDS011;58294;42.988;20.338;2024-01-30T04:44:38;16.85;;;13.77;;
70592;SDS011;58294;42.988;20.338;2024-01-30T04:47:04;16.48;;;12.27;;
70592;SDS011;58294;42.988;20.338;2024-01-30T04:49:31;89.85;;;59.53;;
70592;SDS011;58294;42.988;20.338;2024-01-30T04:51:57;28.48;;;17.92;;
70592;SDS011;58294;42.988;20.338;2024-01-30T04:54:23;20.80;;;14.93;;
70592;SDS011;58294;42.988;20.338;2024-01-30T04:56:49;20.65;;;13.85;;
70592;SDS011;58294;42.988;20.338;2024-01-30T04:59:15;16.67;;;12.32;;
70592;SDS011;58294;42.988;20.338;2024-01-30T05:01:41;17.52;;;13.77;;
70592;SDS011;58294;42.988;20.338;2024-01-30T05:04:07;12.93;;;9.77;;
70592;SDS011;58294;42.988;20.338;2024-01-30T05:06:34;33.22;;;20.10;;
70592;SDS011;58294;42.988;20.338;2024-01-30T05:08:59;35.00;;;20.80;;
70592;SDS011;58294;42.988;20.338;2024-01-30T05:11:25;26.42;;;16.50;;
70592;SDS011;58294;42.988;20.338;2024-01-30T05:13:51;20.98;;;17.13;;
70592;SDS011;58294;42.988;20.338;2024-01-30T05:16:17;24.23;;;16.60;;
70592;SDS011;58294;42.988;20.338;2024-01-30T05:18:43;51.05;;;35.97;;
70592;SDS011;58294;42.988;20.338;2024-01-30T05:21:10;37.00;;;27.15;;
70592;SDS011;58294;42.988;20.338;2024-01-30T05:23:35;37.10;;;25.77;;
70592;SDS011;58294;42.988;20.338;2024-01-30T05:26:01;30.45;;;22.75;;
70592;SDS011;58294;42.988;20.338;2024-01-30T05:28:30;38.30;;;25.30;;
70592;SDS011;58294;42.988;20.338;2024-01-30T05:30:57;43.47;;;27.98;;
70592;SDS011;58294;42.988;20.338;2024-01-30T05:33:22;38.22;;;24.77;;
70592;SDS011;58294;42.988;20.338;2024-01-30T05:35:48;25.15;;;18.83;;
70592;SDS011;58294;42.988;20.338;2024-01-30T05:38:15;60.85;;;37.10;;
70592;SDS011;58294;42.988;20.338;2024-01-30T05:40:41;54.22;;;30.75;;
70592;SDS011;58294;42.988;20.338;2024-01-30T05:43:07;37.47;;;24.35;;
70592;SDS011;58294;42.988;20.338;2024-01-30T05:45:33;41.65;;;30.88;;
70592;SDS011;58294;42.988;20.338;2024-01-30T05:48:02;51.92;;;35.17;;
70592;SDS011;58294;42.988;20.338;2024-01-30T05:50:28;49.97;;;32.70;;
70592;SDS011;58294;42.988;20.338;2024-01-30T05:52:54;51.63;;;34.10;;
70592;SDS011;58294;42.988;20.338;2024-01-30T05:55:19;84.70;;;53.22;;
70592;SDS011;58294;42.988;20.338;2024-01-30T05:57:45;61.33;;;37.25;;
70592;SDS011;58294;42.988;20.338;2024-01-30T06:00:11;41.65;;;27.35;;
70592;SDS011;58294;42.988;20.338;2024-01-30T06:02:37;50.80;;;34.70;;
70592;SDS011;58294;42.988;20.338;2024-01-30T06:05:03;50.20;;;35.40;;
70592;SDS011;58294;42.988;20.338;2024-01-30T06:07:29;48.13;;;34.17;;
70592;SDS011;58294;42.988;20.338;2024-01-30T06:09:55;43.72;;;31.98;;
70592;SDS011;58294;42.988;20.338;2024-01-30T06:12:21;64.53;;;42.65;;
70592;SDS011;58294;42.988;20.338;2024-01-30T06:14:47;118.68;;;68.80;;
70592;SDS011;58294;42.988;20.338;2024-01-30T06:17:12;110.45;;;65.47;;
70592;SDS011;58294;42.988;20.338;2024-01-30T06:19:38;111.53;;;69.32;;
70592;SDS011;58294;42.988;20.338;2024-01-30T06:22:04;270.48;;;171.38;;
70592;SDS011;58294;42.988;20.338;2024-01-30T06:24:30;484.95;;;311.80;;
70592;SDS011;58294;42.988;20.338;2024-01-30T06:26:56;372.00;;;219.18;;
70592;SDS011;58294;42.988;20.338;2024-01-30T06:29:22;97.40;;;46.53;;
70592;SDS011;58294;42.988;20.338;2024-01-30T06:31:49;44.55;;;28.77;;
70592;SDS011;58294;42.988;20.338;2024-01-30T06:34:15;42.35;;;27.20;;
70592;SDS011;58294;42.988;20.338;2024-01-30T06:36:41;34.03;;;25.05;;
70592;SDS011;58294;42.988;20.338;2024-01-30T06:39:07;34.80;;;26.45;;
70592;SDS011;58294;42.988;20.338;2024-01-30T06:41:34;31.48;;;22.92;;
70592;SDS011;58294;42.988;20.338;2024-01-30T06:44:01;33.95;;;25.30;;
70592;SDS011;58294;42.988;20.338;2024-01-30T06:46:29;38.38;;;29.52;;
70592;SDS011;58294;42.988;20.338;2024-01-30T06:48:54;37.17;;;28.73;;
70592;SDS011;58294;42.988;20.338;2024-01-30T06:51:20;37.33;;;29.13;;
70592;SDS011;58294;42.988;20.338;2024-01-30T06:53:46;47.72;;;33.35;;
70592;SDS011;58294;42.988;20.338;2024-01-30T06:56:12;62.00;;;46.85;;
70592;SDS011;58294;42.988;20.338;2024-01-30T06:58:38;48.35;;;35.05;;
70592;SDS011;58294;42.988;20.338;2024-01-30T07:01:04;45.15;;;32.28;;
70592;SDS011;58294;42.988;20.338;2024-01-30T07:03:29;47.53;;;32.10;;
70592;SDS011;58294;42.988;20.338;2024-01-30T07:05:55;46.78;;;37.10;;
70592;SDS011;58294;42.988;20.338;2024-01-30T07:08:21;41.55;;;30.15;;
70592;SDS011;58294;42.988;20.338;2024-01-30T07:10:47;43.20;;;30.88;;
70592;SDS011;58294;42.988;20.338;2024-01-30T07:13:13;44.03;;;31.70;;
70592;SDS011;58294;42.988;20.338;2024-01-30T07:15:41;34.80;;;26.95;;
70592;SDS011;58294;42.988;20.338;2024-01-30T07:18:07;40.00;;;28.73;;
70592;SDS011;58294;42.988;20.338;2024-01-30T07:20:34;37.58;;;29.63;;
70592;SDS011;58294;42.988;20.338;2024-01-30T07:23:00;47.00;;;35.30;;
70592;SDS011;58294;42.988;20.338;2024-01-30T07:25:27;49.00;;;38.30;;
70592;SDS011;58294;42.988;20.338;2024-01-30T07:27:54;56.80;;;42.20;;
70592;SDS011;58294;42.988;20.338;2024-01-30T07:30:21;64.15;;;50.17;;
70592;SDS011;58294;42.988;20.338;2024-01-30T07:32:48;67.75;;;50.35;;
70592;SDS011;58294;42.988;20.338;2024-01-30T07:35:14;66.20;;;50.90;;
70592;SDS011;58294;42.988;20.338;2024-01-30T07:37:40;68.53;;;49.60;;
70592;SDS011;58294;42.988;20.338;2024-01-30T07:40:06;78.07;;;58.28;;
70592;SDS011;58294;42.988;20.338;2024-01-30T07:42:32;68.47;;;47.83;;
70592;SDS011;58294;42.988;20.338;2024-01-30T07:44:58;67.80;;;45.88;;
70592;SDS011;58294;42.988;20.338;2024-01-30T07:47:25;50.47;;;35.97;;
70592;SDS011;58294;42.988;20.338;2024-01-30T07:49:51;51.78;;;36.85;;
70592;SDS011;58294;42.988;20.338;2024-01-30T07:52:17;61.17;;;42.85;;
70592;SDS011;58294;42.988;20.338;2024-01-30T07:54:43;56.95;;;39.90;;
70592;SDS011;58294;42.988;20.338;2024-01-30T07:57:09;51.80;;;36.25;;
70592;SDS011;58294;42.988;20.338;2024-01-30T07:59:35;53.70;;;41.92;;
70592;SDS011;58294;42.988;20.338;2024-01-30T08:02:01;55.65;;;42.47;;
70592;SDS011;58294;42.988;20.338;2024-01-30T08:04:26;59.50;;;42.03;;
70592;SDS011;58294;42.988;20.338;2024-01-30T08:06:52;51.30;;;40.47;;
70592;SDS011;58294;42.988;20.338;2024-01-30T08:09:18;94.20;;;84.45;;
70592;SDS011;58294;42.988;20.338;2024-01-30T08:11:44;395.27;;;355.20;;
70592;SDS011;58294;42.988;20.338;2024-01-30T08:14:09;88.68;;;74.13;;
70592;SDS011;58294;42.988;20.338;2024-01-30T08:16:35;57.10;;;46.47;;
70592;SDS011;58294;42.988;20.338;2024-01-30T08:19:01;55.10;;;41.38;;
70592;SDS011;58294;42.988;20.338;2024-01-30T08:21:28;51.38;;;40.63;;
70592;SDS011;58294;42.988;20.338;2024-01-30T08:23:53;52.65;;;42.22;;
70592;SDS011;58294;42.988;20.338;2024-01-30T08:26:19;68.47;;;54.42;;
70592;SDS011;58294;42.988;20.338;2024-01-30T08:28:45;79.88;;;58.47;;
70592;SDS011;58294;42.988;20.338;2024-01-30T08:31:11;70.28;;;54.53;;
70592;SDS011;58294;42.988;20.338;2024-01-30T08:33:39;70.57;;;53.90;;
70592;SDS011;58294;42.988;20.338;2024-01-30T08:36:06;81.68;;;58.10;;
70592;SDS011;58294;42.988;20.338;2024-01-30T08:38:32;72.30;;;56.65;;
70592;SDS011;58294;42.988;20.338;2024-01-30T08:40:57;56.92;;;43.10;;
70592;SDS011;58294;42.988;20.338;2024-01-30T08:43:23;54.90;;;41.55;;
70592;SDS011;58294;42.988;20.338;2024-01-30T08:45:49;68.72;;;51.75;;
70592;SDS011;58294;42.988;20.338;2024-01-30T08:48:15;69.63;;;56.30;;
70592;SDS011;58294;42.988;20.338;2024-01-30T08:50:40;64.22;;;51.10;;
70592;SDS011;58294;42.988;20.338;2024-01-30T08:53:06;63.88;;;49.88;;
70592;SDS011;58294;42.988;20.338;2024-01-30T08:55:32;61.88;;;47.53;;
70592;SDS011;58294;42.988;20.338;2024-01-30T08:57:58;57.95;;;43.33;;
70592;SDS011;58294;42.988;20.338;2024-01-30T09:00:24;51.13;;;42.40;;
70592;SDS011;58294;42.988;20.338;2024-01-30T09:02:50;50.30;;;39.72;;
70592;SDS011;58294;42.988;20.338;2024-01-30T09:05:16;51.50;;;37.03;;
70592;SDS011;58294;42.988;20.338;2024-01-30T09:07:41;29.30;;;25.50;;
70592;SDS011;58294;42.988;20.338;2024-01-30T09:10:08;26.08;;;21.40;;
70592;SDS011;58294;42.988;20.338;2024-01-30T09:12:34;27.88;;;22.08;;
70592;SDS011;58294;42.988;20.338;2024-01-30T09:14:59;22.95;;;18.85;;
70592;SDS011;58294;42.988;20.338;2024-01-30T09:17:25;16.13;;;14.00;;
70592;SDS011;58294;42.988;20.338;2024-01-30T09:19:51;16.52;;;13.45;;
70592;SDS011;58294;42.988;20.338;2024-01-30T09:22:17;17.70;;;12.25;;
70592;SDS011;58294;42.988;20.338;2024-01-30T09:24:43;13.93;;;11.60;;
70592;SDS011;58294;42.988;20.338;2024-01-30T09:27:09;25.85;;;21.17;;
70592;SDS011;58294;42.988;20.338;2024-01-30T09:29:34;24.25;;;16.95;;
70592;SDS011;58294;42.988;20.338;2024-01-30T09:32:01;22.40;;;19.90;;
70592;SDS011;58294;42.988;20.338;2024-01-30T09:34:27;20.13;;;15.98;;
70592;SDS011;58294;42.988;20.338;2024-01-30T09:36:53;17.38;;;15.57;;
70592;SDS011;58294;42.988;20.338;2024-01-30T09:39:18;16.75;;;13.63;;
70592;SDS011;58294;42.988;20.338;2024-01-30T09:41:48;19.38;;;13.20;;
70592;SDS011;58294;42.988;20.338;2024-01-30T09:44:19;16.48;;;13.00;;
70592;SDS011;58294;42.988;20.338;2024-01-30T09:46:46;16.58;;;12.48;;
70592;SDS011;58294;42.988;20.338;2024-01-30T09:49:15;16.65;;;12.70;;
70592;SDS011;58294;42.988;20.338;2024-01-30T09:51:44;17.35;;;13.18;;
70592;SDS011;58294;42.988;20.338;2024-01-30T09:54:10;17.80;;;13.40;;
70592;SDS011;58294;42.988;20.338;2024-01-30T09:56:39;17.27;;;14.45;;
70592;SDS011;58294;42.988;20.338;2024-01-30T09:59:05;22.13;;;18.88;;
70592;SDS011;58294;42.988;20.338;2024-01-30T10:01:31;23.70;;;18.40;;
70592;SDS011;58294;42.988;20.338;2024-01-30T10:03:59;26.52;;;19.55;;
70592;SDS011;58294;42.988;20.338;2024-01-30T10:06:25;18.63;;;16.20;;
70592;SDS011;58294;42.988;20.338;2024-01-30T10:08:53;25.15;;;20.60;;
70592;SDS011;58294;42.988;20.338;2024-01-30T10:11:18;28.40;;;20.90;;
70592;SDS011;58294;42.988;20.338;2024-01-30T10:13:44;26.25;;;22.83;;
70592;SDS011;58294;42.988;20.338;2024-01-30T10:16:13;28.38;;;24.75;;
70592;SDS011;58294;42.988;20.338;2024-01-30T10:18:42;36.47;;;32.10;;
70592;SDS011;58294;42.988;20.338;2024-01-30T10:21:08;45.38;;;34.63;;
70592;SDS011;58294;42.988;20.338;2024-01-30T10:23:35;29.75;;;25.02;;
70592;SDS011;58294;42.988;20.338;2024-01-30T10:26:05;31.23;;;24.73;;
70592;SDS011;58294;42.988;20.338;2024-01-30T10:28:33;51.40;;;39.83;;
70592;SDS011;58294;42.988;20.338;2024-01-30T10:31:02;26.00;;;22.17;;
70592;SDS011;58294;42.988;20.338;2024-01-30T10:33:31;25.45;;;22.20;;
70592;SDS011;58294;42.988;20.338;2024-01-30T10:36:00;35.58;;;31.77;;
70592;SDS011;58294;42.988;20.338;2024-01-30T10:38:30;27.70;;;24.70;;
70592;SDS011;58294;42.988;20.338;2024-01-30T10:40:58;26.45;;;22.02;;
70592;SDS011;58294;42.988;20.338;2024-01-30T10:43:28;27.48;;;24.00;;
70592;SDS011;58294;42.988;20.338;2024-01-30T10:46:07;26.73;;;23.48;;
70592;SDS011;58294;42.988;20.338;2024-01-30T10:48:57;28.45;;;24.50;;
70592;SDS011;58294;42.988;20.338;2024-01-30T10:51:24;23.80;;;20.63;;
70592;SDS011;58294;42.988;20.338;2024-01-30T10:53:52;23.40;;;20.55;;
70592;SDS011;58294;42.988;20.338;2024-01-30T10:56:21;24.42;;;21.23;;
70592;SDS011;58294;42.988;20.338;2024-01-30T10:58:49;25.23;;;20.73;;
70592;SDS011;58294;42.988;20.338;2024-01-30T11:01:20;23.77;;;19.48;;
70592;SDS011;58294;42.988;20.338;2024-01-30T11:03:50;26.20;;;23.55;;
70592;SDS011;58294;42.988;20.338;2024-01-30T11:06:17;25.20;;;22.73;;
70592;SDS011;58294;42.988;20.338;2024-01-30T11:08:44;23.98;;;19.33;;
70592;SDS011;58294;42.988;20.338;2024-01-30T11:11:10;42.35;;;32.17;;
70592;SDS011;58294;42.988;20.338;2024-01-30T11:13:36;21.77;;;17.77;;
70592;SDS011;58294;42.988;20.338;2024-01-30T11:16:02;19.65;;;15.10;;
70592;SDS011;58294;42.988;20.338;2024-01-30T11:18:30;19.85;;;16.10;;
70592;SDS011;58294;42.988;20.338;2024-01-30T11:20:56;20.67;;;17.15;;
70592;SDS011;58294;42.988;20.338;2024-01-30T11:23:23;17.92;;;16.00;;
70592;SDS011;58294;42.988;20.338;2024-01-30T11:25:52;21.48;;;19.27;;
70592;SDS011;58294;42.988;20.338;2024-01-30T11:28:18;17.40;;;15.57;;
70592;SDS011;58294;42.988;20.338;2024-01-30T11:30:47;17.20;;;15.40;;
70592;SDS011;58294;42.988;20.338;2024-01-30T11:33:16;19.30;;;15.70;;
70592;SDS011;58294;42.988;20.338;2024-01-30T11:35:56;17.05;;;15.23;;
70592;SDS011;58294;42.988;20.338;2024-01-30T11:38:25;21.20;;;16.95;;
70592;SDS011;58294;42.988;20.338;2024-01-30T11:40:53;17.20;;;15.50;;
70592;SDS011;58294;42.988;20.338;2024-01-30T11:43:20;15.50;;;13.93;;
70592;SDS011;58294;42.988;20.338;2024-01-30T11:45:46;15.57;;;13.48;;
70592;SDS011;58294;42.988;20.338;2024-01-30T11:48:12;15.10;;;12.98;;
70592;SDS011;58294;42.988;20.338;2024-01-30T11:50:38;15.75;;;13.95;;
70592;SDS011;58294;42.988;20.338;2024-01-30T11:53:05;12.88;;;11.45;;
70592;SDS011;58294;42.988;20.338;2024-01-30T11:55:32;14.82;;;13.30;;
70592;SDS011;58294;42.988;20.338;2024-01-30T11:57:59;14.43;;;13.02;;
70592;SDS011;58294;42.988;20.338;2024-01-30T12:00:25;18.33;;;15.60;;
70592;SDS011;58294;42.988;20.338;2024-01-30T12:02:54;7.60;;;6.78;;
70592;SDS011;58294;42.988;20.338;2024-01-30T12:05:24;6.60;;;5.65;;
70592;SDS011;58294;42.988;20.338;2024-01-30T12:07:50;12.50;;;9.05;;
70592;SDS011;58294;42.988;20.338;2024-01-30T12:10:16;9.65;;;8.65;;
70592;SDS011;58294;42.988;20.338;2024-01-30T12:12:46;8.02;;;6.60;;
70592;SDS011;58294;42.988;20.338;2024-01-30T12:15:14;36.13;;;12.70;;
70592;SDS011;58294;42.988;20.338;2024-01-30T12:17:40;12.25;;;11.05;;
70592;SDS011;58294;42.988;20.338;2024-01-30T12:22:36;7.65;;;6.70;;
70592;SDS011;58294;42.988;20.338;2024-01-30T12:25:10;7.00;;;6.30;;
70592;SDS011;58294;42.988;20.338;2024-01-30T12:27:37;31.08;;;28.48;;
70592;SDS011;58294;42.988;20.338;2024-01-30T12:30:14;21.63;;;14.98;;
70592;SDS011;58294;42.988;20.338;2024-01-30T12:32:41;8.48;;;7.68;;
70592;SDS011;58294;42.988;20.338;2024-01-30T12:35:14;10.93;;;9.82;;
70592;SDS011;58294;42.988;20.338;2024-01-30T12:37:41;9.10;;;6.68;;
70592;SDS011;58294;42.988;20.338;2024-01-30T12:40:09;13.57;;;12.10;;
70592;SDS011;58294;42.988;20.338;2024-01-30T12:42:38;15.65;;;12.98;;
70592;SDS011;58294;42.988;20.338;2024-01-30T12:45:04;25.38;;;21.50;;
70592;SDS011;58294;42.988;20.338;2024-01-30T12:47:31;9.35;;;7.47;;
70592;SDS011;58294;42.988;20.338;2024-01-30T12:49:57;12.27;;;10.10;;
70592;SDS011;58294;42.988;20.338;2024-01-30T12:52:23;11.38;;;9.60;;
70592;SDS011;58294;42.988;20.338;2024-01-30T12:54:49;9.35;;;8.20;;
70592;SDS011;58294;42.988;20.338;2024-01-30T12:57:15;11.93;;;8.90;;
70592;SDS011;58294;42.988;20.338;2024-01-30T12:59:42;8.80;;;7.28;;
70592;SDS011;58294;42.988;20.338;2024-01-30T13:02:08;6.93;;;5.90;;
70592;SDS011;58294;42.988;20.338;2024-01-30T13:04:34;13.98;;;12.52;;
70592;SDS011;58294;42.988;20.338;2024-01-30T13:07:00;10.25;;;9.18;;
70592;SDS011;58294;42.988;20.338;2024-01-30T13:09:26;11.65;;;10.52;;
70592;SDS011;58294;42.988;20.338;2024-01-30T13:11:52;7.05;;;5.90;;
70592;SDS011;58294;42.988;20.338;2024-01-30T13:14:18;11.32;;;8.68;;
70592;SDS011;58294;42.988;20.338;2024-01-30T13:16:44;19.10;;;17.15;;
70592;SDS011;58294;42.988;20.338;2024-01-30T13:19:11;14.02;;;9.98;;
70592;SDS011;58294;42.988;20.338;2024-01-30T13:21:36;13.25;;;11.77;;
70592;SDS011;58294;42.988;20.338;2024-01-30T13:24:02;9.93;;;8.98;;
70592;SDS011;58294;42.988;20.338;2024-01-30T13:26:29;6.45;;;5.85;;
70592;SDS011;58294;42.988;20.338;2024-01-30T13:28:57;10.60;;;9.15;;
70592;SDS011;58294;42.988;20.338;2024-01-30T13:31:23;7.18;;;6.18;;
70592;SDS011;58294;42.988;20.338;2024-01-30T13:33:48;14.02;;;7.97;;
70592;SDS011;58294;42.988;20.338;2024-01-30T13:36:14;8.35;;;6.90;;
70592;SDS011;58294;42.988;20.338;2024-01-30T13:38:40;8.10;;;6.00;;
70592;SDS011;58294;42.988;20.338;2024-01-30T13:41:06;7.35;;;5.72;;
70592;SDS011;58294;42.988;20.338;2024-01-30T13:43:32;8.70;;;7.82;;
70592;SDS011;58294;42.988;20.338;2024-01-30T13:45:58;8.55;;;6.63;;
70592;SDS011;58294;42.988;20.338;2024-01-30T13:48:24;7.57;;;6.88;;
70592;SDS011;58294;42.988;20.338;2024-01-30T13:50:50;9.85;;;7.55;;
70592;SDS011;58294;42.988;20.338;2024-01-30T13:53:16;5.47;;;4.75;;
70592;SDS011;58294;42.988;20.338;2024-01-30T13:55:42;5.80;;;5.15;;
70592;SDS011;58294;42.988;20.338;2024-01-30T13:58:07;7.22;;;5.10;;
70592;SDS011;58294;42.988;20.338;2024-01-30T14:00:33;5.05;;;4.55;;
70592;SDS011;58294;42.988;20.338;2024-01-30T14:02:59;7.32;;;4.90;;
70592;SDS011;58294;42.988;20.338;2024-01-30T14:05:26;8.15;;;7.07;;
70592;SDS011;58294;42.988;20.338;2024-01-30T14:07:55;9.55;;;6.75;;
70592;SDS011;58294;42.988;20.338;2024-01-30T14:10:22;8.15;;;5.63;;